createdAt,value
2018-12-14T00:01:50.475Z,98271.37
2018-12-14T00:04:19.713Z,98268.83
2018-12-14T00:06:48.914Z,98267.97
2018-12-14T00:09:18.066Z,98267.97
2018-12-14T00:11:47.206Z,98264.97
2018-12-14T00:14:16.367Z,98270.11
2018-12-14T00:16:45.517Z,98271.82
2018-12-14T00:19:14.694Z,98263.28
2018-12-14T00:21:43.951Z,98273.08
2018-12-14T00:24:13.292Z,98269.67
2018-12-14T00:26:42.425Z,98268.81
2018-12-14T00:29:11.546Z,98270.52
2018-12-14T00:31:41.617Z,98268.38
2018-12-14T00:34:10.770Z,98272.23
2018-12-14T00:36:39.914Z,98270.11
2018-12-14T00:39:09.083Z,98279.92
2018-12-14T00:41:38.258Z,98282.47
2018-12-14T00:44:07.415Z,98279.48
2018-12-14T00:46:41.479Z,98278.63
2018-12-14T00:49:11.269Z,98276.92
2018-12-14T00:51:40.445Z,98285.46
2018-12-14T00:54:09.633Z,98288.45
2018-12-14T00:56:38.773Z,98282.07
2018-12-14T00:59:07.906Z,98291.88
2018-12-14T01:01:37.046Z,98288.89
2018-12-14T01:04:06.229Z,98290.17
2018-12-14T01:06:35.416Z,98297.42
2018-12-14T01:09:05.209Z,98300.39
2018-12-14T01:11:34.600Z,98301.67
2018-12-14T01:14:03.913Z,98301.25
2018-12-14T01:16:33.046Z,98299.98
2018-12-14T01:19:02.277Z,98300.42
2018-12-14T01:21:31.423Z,98300.84
2018-12-14T01:24:00.539Z,98298.69
2018-12-14T01:26:29.661Z,98302.55
2018-12-14T01:28:58.787Z,98306.80
2018-12-14T01:31:27.993Z,98301.23
2018-12-14T01:33:57.171Z,98302.53
2018-12-14T01:36:26.308Z,98303.38
2018-12-14T01:38:55.467Z,98301.23
2018-12-14T01:41:24.589Z,98301.67
2018-12-14T01:43:53.758Z,98302.09
2018-12-14T01:46:22.878Z,98295.71
2018-12-14T01:48:52.059Z,98295.28
2018-12-14T01:51:21.364Z,98293.98
2018-12-14T01:53:58.465Z,98292.72
2018-12-14T01:56:27.597Z,98289.73
2018-12-14T01:58:56.708Z,98290.56
2018-12-14T02:01:25.839Z,98290.12
2018-12-14T02:03:54.974Z,98288.85
2018-12-14T02:06:24.242Z,98284.17
2018-12-14T02:08:53.388Z,98283.73
2018-12-14T02:11:22.669Z,98284.58
2018-12-14T02:13:52.248Z,98279.03
2018-12-14T02:16:21.391Z,98283.28
2018-12-14T02:18:50.505Z,98283.69
2018-12-14T02:21:19.678Z,98280.28
2018-12-14T02:23:48.828Z,98280.72
2018-12-14T02:26:18.009Z,98285.00
2018-12-14T02:28:47.151Z,98284.14
2018-12-14T02:31:16.299Z,98287.14
2018-12-14T02:33:45.476Z,98282.44
2018-12-14T02:36:14.646Z,98281.55
2018-12-14T02:38:43.870Z,98279.43
2018-12-14T02:41:13.284Z,98281.55
2018-12-14T02:43:42.587Z,98280.28
2018-12-14T02:46:11.740Z,98278.99
2018-12-14T02:48:40.897Z,98281.55
2018-12-14T02:51:10.038Z,98280.27
2018-12-14T02:53:39.194Z,98275.59
2018-12-14T02:56:08.348Z,98274.31
2018-12-14T02:58:37.518Z,98280.70
2018-12-14T03:01:06.816Z,98278.15
2018-12-14T03:03:36.138Z,98275.16
2018-12-14T03:06:05.307Z,98275.17
2018-12-14T03:08:34.469Z,98275.17
2018-12-14T03:11:03.738Z,98278.15
2018-12-14T03:13:33.257Z,98281.98
2018-12-14T03:16:02.777Z,98278.14
2018-12-14T03:18:32.386Z,98277.70
2018-12-14T03:21:01.858Z,98269.58
2018-12-14T03:23:31.003Z,98268.30
2018-12-14T03:26:00.315Z,98270.02
2018-12-14T03:28:29.476Z,98270.00
2018-12-14T03:30:58.627Z,98272.99
2018-12-14T03:33:27.785Z,98271.28
2018-12-14T03:35:56.966Z,98274.27
2018-12-14T03:38:26.091Z,98277.67
2018-12-14T03:40:57.412Z,98272.98
2018-12-14T03:43:26.558Z,98284.48
2018-12-14T03:45:55.839Z,98282.38
2018-12-14T03:48:25.101Z,98286.64
2018-12-14T03:50:54.253Z,98287.91
2018-12-14T03:53:23.567Z,98288.33
2018-12-14T03:55:52.899Z,98291.74
2018-12-14T03:58:22.069Z,98297.30
2018-12-14T04:00:51.207Z,98300.27
2018-12-14T04:03:20.338Z,98300.28
2018-12-14T04:05:49.607Z,98305.39
2018-12-14T04:08:18.727Z,98302.84
2018-12-14T04:10:47.858Z,98303.21
2018-12-14T04:13:17.019Z,98304.93
2018-12-14T04:15:46.153Z,98310.91
2018-12-14T04:18:15.297Z,98303.64
2018-12-14T04:20:44.642Z,98315.57
2018-12-14T04:23:13.813Z,98315.55
2018-12-14T04:25:42.966Z,98311.70
2018-12-14T04:28:12.107Z,98309.98
2018-12-14T04:30:41.239Z,98319.81
2018-12-14T04:33:10.380Z,98319.80
2018-12-14T04:35:39.552Z,98318.53
2018-12-14T04:38:08.687Z,98316.81
2018-12-14T04:40:37.826Z,98317.23
2018-12-14T04:43:06.983Z,98318.52
2018-12-14T04:45:36.106Z,98321.07
2018-12-14T04:48:05.444Z,98321.05
2018-12-14T04:50:34.579Z,98319.78
2018-12-14T04:53:04.393Z,98320.20
2018-12-14T04:55:33.958Z,98320.62
2018-12-14T04:58:03.117Z,98318.50
2018-12-14T05:00:32.253Z,98317.64
2018-12-14T05:03:01.415Z,98317.22
2018-12-14T05:05:30.649Z,98315.50
2018-12-14T05:07:59.920Z,98322.76
2018-12-14T05:10:29.010Z,98327.02
2018-12-14T05:12:58.342Z,98323.19
2018-12-14T05:15:27.505Z,98325.30
2018-12-14T05:17:56.670Z,98329.55
2018-12-14T05:20:25.813Z,98324.02
2018-12-14T05:22:55.053Z,98328.27
2018-12-14T05:25:26.225Z,98326.98
2018-12-14T05:27:55.441Z,98331.67
2018-12-14T05:30:24.723Z,98332.53
2018-12-14T05:32:53.906Z,98334.22
2018-12-14T05:35:23.087Z,98337.64
2018-12-14T05:37:52.259Z,98340.63
2018-12-14T05:40:21.357Z,98344.02
2018-12-14T05:42:50.985Z,98349.57
2018-12-14T05:45:22.016Z,98344.44
2018-12-14T05:47:51.119Z,98344.88
2018-12-14T05:50:20.284Z,98348.72
2018-12-14T05:52:49.425Z,98349.57
2018-12-14T05:55:18.582Z,98342.34
2018-12-14T05:57:47.847Z,98341.90
2018-12-14T06:00:17.042Z,98339.34
2018-12-14T06:02:46.202Z,98340.61
2018-12-14T06:05:15.490Z,98338.91
2018-12-14T06:07:44.613Z,98345.30
2018-12-14T06:10:14.061Z,98343.14
2018-12-14T06:12:43.206Z,98338.00
2018-12-14T06:15:12.381Z,98341.83
2018-12-14T06:17:41.543Z,98346.05
2018-12-14T06:20:10.669Z,98347.30
2018-12-14T06:22:39.862Z,98354.53
2018-12-14T06:25:08.983Z,98348.97
2018-12-14T06:27:38.120Z,98355.35
2018-12-14T06:30:07.495Z,98357.89
2018-12-14T06:32:36.638Z,98361.24
2018-12-14T06:35:05.832Z,98366.77
2018-12-14T06:37:35.075Z,98374.46
2018-12-14T06:40:05.526Z,98373.61
2018-12-14T06:42:34.713Z,98374.46
2018-12-14T06:45:05.367Z,98377.86
2018-12-14T06:47:34.593Z,98374.00
2018-12-14T06:50:04.249Z,98383.36
2018-12-14T06:52:33.539Z,98383.75
2018-12-14T06:55:02.675Z,98389.27
2018-12-14T06:57:31.873Z,98386.27
2018-12-14T07:00:00.983Z,98387.94
2018-12-14T07:02:33.515Z,98395.17
2018-12-14T07:05:03.148Z,98393.89
2018-12-14T07:07:32.388Z,98393.98
2018-12-14T07:10:01.521Z,98392.23
2018-12-14T07:12:30.922Z,98394.33
2018-12-14T07:15:00.067Z,98398.16
2018-12-14T07:17:29.183Z,98390.41
2018-12-14T07:19:58.327Z,98394.58
2018-12-14T07:22:27.495Z,98394.08
2018-12-14T07:24:56.670Z,98392.44
2018-12-14T07:27:25.812Z,98402.65
2018-12-14T07:29:54.947Z,98403.88
2018-12-14T07:32:24.108Z,98412.80
2018-12-14T07:34:53.350Z,98417.09
2018-12-14T07:37:22.490Z,98414.98
2018-12-14T07:39:52.408Z,98420.55
2018-12-14T07:42:21.536Z,98424.39
2018-12-14T07:44:50.813Z,98429.99
2018-12-14T07:47:20.053Z,98435.60
2018-12-14T07:49:49.255Z,98440.72
2018-12-14T07:52:18.397Z,98439.49
2018-12-14T07:54:47.696Z,98439.97
2018-12-14T07:57:17.432Z,98442.22
2018-12-14T07:59:46.891Z,98438.78
2018-12-14T08:02:16.064Z,98445.64
2018-12-14T08:04:45.398Z,98446.97
2018-12-14T08:07:14.972Z,98448.27
2018-12-14T08:09:44.175Z,98442.67
2018-12-14T08:12:13.304Z,98453.77
2018-12-14T08:14:42.790Z,98452.89
2018-12-14T08:17:12.215Z,98452.10
2018-12-14T08:19:41.412Z,98454.68
2018-12-14T08:22:10.913Z,98457.24
2018-12-14T08:24:40.108Z,98464.51
2018-12-14T08:27:09.315Z,98461.08
2018-12-14T08:29:38.463Z,98465.39
2018-12-14T08:32:07.734Z,98459.47
2018-12-14T08:34:37.071Z,98462.45
2018-12-14T08:37:06.228Z,98464.66
2018-12-14T08:39:35.368Z,98465.48
2018-12-14T08:42:04.521Z,98461.25
2018-12-14T08:44:33.715Z,98466.86
2018-12-14T08:47:02.867Z,98469.44
2018-12-14T08:49:32.393Z,98471.62
2018-12-14T08:52:01.541Z,98474.20
2018-12-14T08:54:30.784Z,98480.63
2018-12-14T08:56:59.999Z,98482.36
2018-12-14T08:59:29.205Z,98485.41
2018-12-14T09:01:58.423Z,98483.34
2018-12-14T09:04:27.613Z,98486.77
2018-12-14T09:06:56.803Z,98488.00
2018-12-14T09:09:25.977Z,98496.91
2018-12-14T09:11:55.117Z,98489.31
2018-12-14T09:14:24.308Z,98486.73
2018-12-14T09:16:53.598Z,98492.77
2018-12-14T09:19:22.748Z,98497.18
2018-12-14T09:21:52.065Z,98485.32
2018-12-14T09:24:21.205Z,98487.75
2018-12-14T09:26:50.369Z,98492.79
2018-12-14T09:29:19.558Z,98492.35
2018-12-14T09:31:48.888Z,98494.02
2018-12-14T09:34:18.107Z,98495.08
2018-12-14T09:36:47.346Z,98493.73
2018-12-14T09:39:16.740Z,98491.42
2018-12-14T09:41:45.999Z,98486.70
2018-12-14T09:44:15.159Z,98489.27
2018-12-14T09:46:44.458Z,98482.79
2018-12-14T09:49:13.564Z,98485.81
2018-12-14T09:51:42.721Z,98482.33
2018-12-14T09:54:11.891Z,98482.43
2018-12-14T09:56:41.142Z,98490.48
2018-12-14T09:59:10.286Z,98488.71
2018-12-14T10:01:39.475Z,98493.79
2018-12-14T10:04:08.747Z,98490.76
2018-12-14T10:06:37.939Z,98491.42
2018-12-14T10:09:07.079Z,98498.23
2018-12-14T10:11:36.241Z,98498.61
2018-12-14T10:14:06.248Z,98500.41
2018-12-14T10:16:35.557Z,98494.22
2018-12-14T10:19:04.909Z,98495.06
2018-12-14T10:21:34.048Z,98495.40
2018-12-14T10:24:03.219Z,98497.22
2018-12-14T10:26:32.704Z,98498.40
2018-12-14T10:29:01.945Z,98503.71
2018-12-14T10:31:31.065Z,98504.19
2018-12-14T10:34:00.204Z,98508.47
2018-12-14T10:36:29.496Z,98507.19
2018-12-14T10:38:58.796Z,98494.70
2018-12-14T10:41:27.990Z,98496.25
2018-12-14T10:43:57.169Z,98494.58
2018-12-14T10:46:26.409Z,98506.30
2018-12-14T10:48:55.660Z,98495.08
2018-12-14T10:51:25.108Z,98495.50
2018-12-14T10:53:54.350Z,98496.95
2018-12-14T10:56:23.632Z,98485.45
2018-12-14T10:58:52.774Z,98496.52
2018-12-14T11:01:27.584Z,98491.22
2018-12-14T11:03:56.685Z,98494.64
2018-12-14T11:06:25.851Z,98491.68
2018-12-14T11:08:55.049Z,98491.23
2018-12-14T11:11:24.203Z,98491.27
2018-12-14T11:13:53.375Z,98489.19
2018-12-14T11:16:22.509Z,98492.61
2018-12-14T11:18:51.637Z,98486.20
2018-12-14T11:21:20.736Z,98492.63
2018-12-14T11:23:49.909Z,98484.50
2018-12-14T11:26:19.056Z,98482.39
2018-12-14T11:28:48.321Z,98478.55
2018-12-14T11:31:17.638Z,98479.36
2018-12-14T11:33:48.156Z,98481.86
2018-12-14T11:36:17.635Z,98478.41
2018-12-14T11:38:46.859Z,98483.07
2018-12-14T11:41:18.533Z,98482.64
2018-12-14T11:43:47.387Z,98488.62
2018-12-14T11:46:16.522Z,98482.66
2018-12-14T11:48:45.680Z,98489.91
2018-12-14T11:51:15.031Z,98487.78
2018-12-14T11:53:44.199Z,98486.50
2018-12-14T11:56:13.357Z,98485.20
2018-12-14T11:58:42.481Z,98488.20
2018-12-14T12:01:11.693Z,98487.36
2018-12-14T12:03:42.933Z,98496.78
2018-12-14T12:06:12.351Z,98494.23
2018-12-14T12:08:41.744Z,98495.52
2018-12-14T12:11:10.943Z,98493.38
2018-12-14T12:13:40.141Z,98490.41
2018-12-14T12:16:09.267Z,98488.25
2018-12-14T12:18:38.537Z,98493.39
2018-12-14T12:21:07.711Z,98495.06
2018-12-14T12:23:36.817Z,98490.34
2018-12-14T12:26:06.027Z,98488.20
2018-12-14T12:28:35.326Z,98486.50
2018-12-14T12:31:04.459Z,98490.33
2018-12-14T12:33:33.642Z,98489.50
2018-12-14T12:36:02.900Z,98488.23
2018-12-14T12:38:37.921Z,98487.41
2018-12-14T12:41:03.345Z,98484.86
2018-12-14T12:43:32.511Z,98484.41
2018-12-14T12:46:01.719Z,98487.84
2018-12-14T12:48:30.979Z,98488.72
2018-12-14T12:51:03.315Z,98487.41
2018-12-14T12:53:32.630Z,98486.11
2018-12-14T12:56:01.833Z,98484.41
2018-12-14T12:58:30.966Z,98477.17
2018-12-14T13:01:00.140Z,98486.99
2018-12-14T13:03:29.382Z,98478.36
2018-12-14T13:05:58.524Z,98480.50
2018-12-14T13:08:27.718Z,98478.36
2018-12-14T13:10:57.230Z,98481.80
2018-12-14T13:13:26.383Z,98478.83
2018-12-14T13:15:55.702Z,98481.81
2018-12-14T13:18:24.919Z,98486.50
2018-12-14T13:20:54.123Z,98483.07
2018-12-14T13:23:23.233Z,98483.53
2018-12-14T13:25:52.629Z,98483.95
2018-12-14T13:28:22.237Z,98488.62
2018-12-14T13:30:51.904Z,98492.47
2018-12-14T13:33:21.308Z,98489.05
2018-12-14T13:35:50.682Z,98490.76
2018-12-14T13:38:20.075Z,98488.20
2018-12-14T13:40:49.280Z,98488.64
2018-12-14T13:43:18.557Z,98487.77
2018-12-14T13:45:47.790Z,98490.34
2018-12-14T13:55:02.591Z,98494.19
2018-12-14T13:57:31.778Z,98497.17
2018-12-14T14:00:00.958Z,98501.84
2018-12-14T14:02:30.153Z,98505.24
2018-12-14T14:04:59.319Z,98518.92
2018-12-14T14:07:28.491Z,98511.24
2018-12-14T14:09:57.670Z,98522.36
2018-12-14T14:12:30.818Z,98526.22
2018-12-14T14:14:58.085Z,98518.52
2018-12-14T14:17:27.314Z,98518.06
2018-12-14T14:19:56.534Z,98524.47
2018-12-14T14:22:25.824Z,98521.48
2018-12-14T14:24:55.021Z,98524.48
2018-12-14T14:27:24.129Z,98526.61
2018-12-14T14:29:53.306Z,98528.73
2018-12-14T14:32:22.496Z,98528.73
2018-12-14T14:34:51.772Z,98530.89
2018-12-14T14:37:20.898Z,98529.17
2018-12-14T14:39:50.149Z,98527.42
2018-12-14T14:42:19.367Z,98529.55
2018-12-14T14:44:48.490Z,98532.98
2018-12-14T14:47:17.738Z,98535.96
2018-12-14T14:49:46.991Z,98538.94
2018-12-14T14:52:16.370Z,98545.77
2018-12-14T14:54:45.529Z,98542.77
2018-12-14T14:57:14.714Z,98552.57
2018-12-14T14:59:43.891Z,98553.43
2018-12-14T15:02:13.118Z,98554.70
2018-12-14T15:04:42.223Z,98558.96
2018-12-14T15:07:11.655Z,98562.38
2018-12-14T15:09:41.133Z,98562.80
2018-12-14T15:12:10.259Z,98565.38
2018-12-14T15:14:39.429Z,98563.68
2018-12-14T15:17:08.756Z,98568.79
2018-12-14T15:19:37.970Z,98570.52
2018-12-14T15:22:07.235Z,98576.48
2018-12-14T15:24:36.420Z,98581.24
2018-12-14T15:27:05.648Z,98584.23
2018-12-14T15:29:34.850Z,98584.20
2018-12-14T15:32:04.171Z,98586.32
2018-12-14T15:34:33.321Z,98584.18
2018-12-14T15:37:02.480Z,98588.84
2018-12-14T15:39:31.671Z,98594.41
2018-12-14T15:42:00.787Z,98600.80
2018-12-14T15:44:29.949Z,98599.97
2018-12-14T15:46:59.136Z,98594.36
2018-12-14T15:49:28.663Z,98598.66
2018-12-14T15:51:57.771Z,98603.36
2018-12-14T15:54:26.952Z,98603.77
2018-12-14T15:56:56.137Z,98602.47
2018-12-14T15:59:25.285Z,98611.02
2018-12-14T16:01:54.514Z,98615.70
2018-12-14T16:04:23.629Z,98617.86
2018-12-14T16:06:52.839Z,98616.98
2018-12-14T16:09:21.980Z,98614.00
2018-12-14T16:11:51.170Z,98617.86
2018-12-14T16:14:20.355Z,98620.81
2018-12-14T16:16:49.487Z,98628.50
2018-12-14T16:19:18.760Z,98631.91
2018-12-14T16:21:47.981Z,98631.05
2018-12-14T16:24:17.299Z,98628.47
2018-12-14T16:26:46.521Z,98631.87
2018-12-14T16:29:15.962Z,98638.27
2018-12-14T16:31:45.117Z,98639.55
2018-12-14T16:34:14.261Z,98641.27
2018-12-14T16:36:43.635Z,98639.53
2018-12-14T16:39:12.773Z,98643.39
2018-12-14T16:41:41.967Z,98643.38
2018-12-14T16:44:11.105Z,98645.50
2018-12-14T16:46:40.249Z,98648.08
2018-12-14T16:49:09.508Z,98651.48
2018-12-14T16:51:38.703Z,98653.62
2018-12-14T16:54:07.887Z,98661.30
2018-12-14T16:56:37.349Z,98659.13
2018-12-14T16:59:06.475Z,98660.41
2018-12-14T17:01:50.432Z,98664.67
2018-12-14T17:04:19.617Z,98670.20
2018-12-14T17:06:48.872Z,98677.48
2018-12-14T17:09:18.094Z,98677.47
2018-12-14T17:11:47.341Z,98673.23
2018-12-14T17:14:16.634Z,98677.05
2018-12-14T17:16:45.779Z,98675.33
2018-12-14T17:19:14.986Z,98675.34
2018-12-14T17:21:44.199Z,98672.36
2018-12-14T17:24:13.656Z,98677.88
2018-12-14T17:26:42.930Z,98676.19
2018-12-14T17:29:12.063Z,98686.83
2018-12-14T17:31:41.600Z,98681.27
2018-12-14T17:34:10.719Z,98687.64
2018-12-14T17:36:39.994Z,98688.57
2018-12-14T17:39:09.134Z,98688.17
2018-12-14T17:41:38.446Z,98689.43
2018-12-14T17:44:07.639Z,98690.25
2018-12-14T17:46:37.051Z,98694.05
2018-12-14T17:49:06.195Z,98695.33
2018-12-14T17:51:35.710Z,98700.03
2018-12-14T17:54:04.953Z,98699.15
2018-12-14T17:56:34.087Z,98695.75
2018-12-14T17:59:03.223Z,98701.30
2018-12-14T18:01:32.416Z,98698.32
2018-12-14T18:04:01.685Z,98702.98
2018-12-14T18:06:30.823Z,98697.40
2018-12-14T18:09:00.070Z,98698.70
2018-12-14T18:11:29.259Z,98705.91
2018-12-14T18:13:58.541Z,98704.20
2018-12-14T18:16:27.982Z,98704.61
2018-12-14T18:18:57.514Z,98706.34
2018-12-14T18:21:26.650Z,98702.92
2018-12-14T18:23:55.900Z,98704.63
2018-12-14T18:26:25.210Z,98706.77
2018-12-14T18:28:54.342Z,98705.47
2018-12-14T18:31:23.552Z,98704.20
2018-12-14T18:33:52.867Z,98708.47
2018-12-14T18:36:22.005Z,98709.73
2018-12-14T18:38:51.155Z,98709.73
2018-12-14T18:41:20.358Z,98720.36
2018-12-14T18:43:49.481Z,98721.22
2018-12-14T18:46:18.727Z,98725.51
2018-12-14T18:48:47.927Z,98723.77
2018-12-14T18:51:17.206Z,98725.06
2018-12-14T18:53:51.851Z,98728.44
2018-12-14T18:56:24.926Z,98727.58
2018-12-14T18:58:54.373Z,98733.98
2018-12-14T19:01:23.619Z,98736.56
2018-12-14T19:03:54.375Z,98731.02
2018-12-14T19:06:23.640Z,98739.14
2018-12-14T19:08:52.764Z,98740.01
2018-12-14T19:11:21.901Z,98739.56
2018-12-14T19:13:51.055Z,98748.53
2018-12-14T19:16:20.234Z,98751.91
2018-12-14T19:18:49.362Z,98752.34
2018-12-14T19:21:18.516Z,98762.59
2018-12-14T19:23:47.724Z,98760.00
2018-12-14T19:26:16.860Z,98759.16
2018-12-14T19:28:46.096Z,98760.86
2018-12-14T19:31:15.780Z,98763.43
2018-12-14T19:33:44.922Z,98765.58
2018-12-14T19:36:14.072Z,98767.70
2018-12-14T19:38:43.226Z,98765.56
2018-12-14T19:41:13.122Z,98777.53
2018-12-14T19:43:42.270Z,98774.53
2018-12-14T19:46:11.575Z,98777.97
2018-12-14T19:48:41.673Z,98785.66
2018-12-14T19:51:12.946Z,98795.06
2018-12-14T19:53:43.233Z,98794.64
2018-12-14T19:56:12.352Z,98788.22
2018-12-14T19:58:41.652Z,98796.73
2018-12-14T20:01:10.809Z,98796.29
2018-12-14T20:03:40.091Z,98795.88
2018-12-14T20:06:13.380Z,98794.62
2018-12-14T20:08:42.607Z,98795.89
2018-12-14T20:11:12.008Z,98793.28
2018-12-14T20:13:41.228Z,98792.43
2018-12-14T20:16:12.927Z,98796.27
2018-12-14T20:18:43.409Z,98795.44
2018-12-14T20:21:13.109Z,98795.44
2018-12-14T20:23:45.567Z,98796.27
2018-12-14T20:26:21.705Z,98792.85
2018-12-14T20:28:51.553Z,98793.71
2018-12-14T20:31:22.463Z,98796.72
2018-12-14T20:33:51.685Z,98796.69
2018-12-14T20:36:20.962Z,98797.08
2018-12-14T20:38:51.374Z,98799.23
2018-12-14T20:41:20.533Z,98799.23
2018-12-14T20:43:49.688Z,98797.08
2018-12-14T20:46:19.487Z,98799.17
2018-12-14T20:48:48.869Z,98792.78
2018-12-14T20:51:18.049Z,98797.03
2018-12-14T20:53:47.539Z,98802.59
2018-12-14T20:56:16.840Z,98810.75
2018-12-14T20:58:46.140Z,98812.44
2018-12-14T21:01:15.371Z,98818.01
2018-12-14T21:03:44.554Z,98828.27
2018-12-14T21:06:13.831Z,98827.43
2018-12-14T21:08:43.026Z,98830.00
2018-12-14T21:11:12.250Z,98829.13
2018-12-14T21:13:41.420Z,98832.13
2018-12-14T21:16:10.611Z,98832.97
2018-12-14T21:18:40.305Z,98827.84
2018-12-14T21:21:09.813Z,98831.69
2018-12-14T21:23:41.452Z,98830.00
2018-12-14T21:26:10.602Z,98831.27
2018-12-14T21:28:39.812Z,98838.12
2018-12-14T21:31:10.131Z,98831.73
2018-12-14T21:33:39.321Z,98831.30
2018-12-14T21:36:10.162Z,98825.34
2018-12-14T21:38:40.170Z,98832.16
2018-12-14T21:41:09.410Z,98833.44
2018-12-14T21:43:38.717Z,98827.48
2018-12-14T21:46:07.868Z,98827.50
2018-12-14T21:48:37.072Z,98821.97
2018-12-14T21:51:06.236Z,98815.56
2018-12-14T21:53:35.417Z,98824.95
2018-12-14T21:56:04.587Z,98826.25
2018-12-14T21:58:33.882Z,98825.83
2018-12-14T22:01:03.177Z,98831.81
2018-12-14T22:03:34.678Z,98830.95
2018-12-14T22:06:03.942Z,98830.95
2018-12-14T22:08:33.097Z,98833.09
2018-12-14T22:11:02.242Z,98830.09
2018-12-14T22:13:31.399Z,98830.51
2018-12-14T22:16:00.566Z,98822.41
2018-12-14T22:18:29.736Z,98823.25
2018-12-14T22:20:58.895Z,98825.39
2018-12-14T22:23:28.055Z,98818.98
2018-12-14T22:25:57.228Z,98820.22
2018-12-14T22:28:26.334Z,98828.73
2018-12-14T22:30:55.485Z,98818.91
2018-12-14T22:33:24.645Z,98824.88
2018-12-14T22:35:53.783Z,98823.98
2018-12-14T22:38:22.983Z,98823.98
2018-12-14T22:40:52.130Z,98822.23
2018-12-14T22:43:21.227Z,98826.11
2018-12-14T22:45:50.392Z,98817.95
2018-12-14T22:48:19.792Z,98812.44
2018-12-14T22:50:48.964Z,98810.28
2018-12-14T22:53:18.077Z,98815.38
2018-12-14T22:55:47.265Z,98816.22
2018-12-14T22:58:16.419Z,98811.87
2018-12-14T23:00:51.578Z,98816.55
2018-12-14T23:03:21.107Z,98818.70
2018-12-14T23:05:50.482Z,98819.98
2018-12-14T23:08:19.613Z,98822.95
2018-12-14T23:10:49.162Z,98820.41
2018-12-14T23:13:18.347Z,98821.21
2018-12-14T23:15:47.514Z,98822.94
2018-12-14T23:18:17.003Z,98822.47
2018-12-14T23:20:46.176Z,98819.91
2018-12-14T23:23:15.720Z,98819.05
2018-12-14T23:25:44.912Z,98821.16
2018-12-14T23:28:14.096Z,98826.28
2018-12-14T23:30:43.263Z,98828.45
2018-12-14T23:33:15.272Z,98833.14
2018-12-14T23:35:44.456Z,98831.89
2018-12-14T23:38:13.605Z,98836.17
2018-12-14T23:40:42.770Z,98838.27
2018-12-14T23:43:12.036Z,98842.13
2018-12-14T23:45:41.150Z,98834.01
2018-12-14T23:48:10.303Z,98836.56
2018-12-14T23:50:39.465Z,98836.13
2018-12-14T23:53:09.095Z,98832.28
2018-12-14T23:55:38.229Z,98834.81
2018-12-14T23:58:07.359Z,98836.06
